Time;durP1;ratioP1;P1;durP2;ratioP2;P2;SDS_P1;SDS_P2;PMS_P1;PMS_P2;Temp;Humidity;BMP_temperature;BMP_pressure;BME280_temperature;BME280_humidity;BME280_pressure;Samples;Min_cycle;Max_cycle;Signal;HPM_P1;HPM_P2
2021/07/08 00:00:41;;;;;;;1.80;1.55;;;16.80;99.90;;;;;;6124789;23;20350;-87
2021/07/08 00:03:08;;;;;;;;;;;16.80;99.90;;;;;;6073345;23;20457;-87
2021/07/08 00:05:39;;;;;;;2.00;1.90;;;16.80;99.90;;;;;;6097427;23;19943;-87
2021/07/08 00:08:07;;;;;;;6.40;2.45;;;16.80;99.90;;;;;;6100935;23;20025;-88
2021/07/08 00:10:45;;;;;;;2.20;1.65;;;16.80;99.90;;;;;;6072632;23;20018;-87
2021/07/08 00:13:15;;;;;;;7.38;2.50;;;16.80;99.90;;;;;;6073613;23;20588;-88
2021/07/08 00:15:43;;;;;;;3.60;1.83;;;16.80;99.90;;;;;;6128723;23;20353;-88
2021/07/08 00:18:12;;;;;;;2.28;1.77;;;16.70;99.90;;;;;;6108072;23;20014;-88
2021/07/08 00:20:41;;;;;;;4.10;2.10;;;16.80;99.90;;;;;;6123931;23;20030;-88
2021/07/08 00:23:09;;;;;;;3.78;2.22;;;16.70;99.90;;;;;;6077295;23;20408;-88
2021/07/08 00:25:37;;;;;;;2.00;1.90;;;16.70;99.90;;;;;;6067661;23;20434;-87
2021/07/08 00:28:12;;;;;;;6.82;2.45;;;16.70;99.90;;;;;;6072493;23;20030;-88
2021/07/08 00:30:41;;;;;;;3.13;2.85;;;16.70;99.90;;;;;;6101514;23;20015;-88
2021/07/08 00:33:09;;;;;;;2.65;2.40;;;16.60;99.90;;;;;;6078317;23;20018;-88
2021/07/08 00:35:39;;;;;;;3.95;2.17;;;16.60;99.90;;;;;;6098872;23;20022;-88
2021/07/08 00:38:07;;;;;;;4.13;2.33;;;16.60;99.90;;;;;;6044255;23;20434;-88
2021/07/08 00:40:35;;;;;;;4.22;2.28;;;16.50;99.90;;;;;;6042634;23;20666;-88
2021/07/08 00:43:03;;;;;;;2.20;2.00;;;16.50;99.90;;;;;;6075594;23;20025;-88
2021/07/08 00:45:31;;;;;;;3.17;2.15;;;16.50;99.90;;;;;;6103777;23;20346;-88
2021/07/08 00:48:00;;;;;;;3.30;2.83;;;16.50;99.90;;;;;;6072153;23;20027;-88
2021/07/08 00:50:36;;;;;;;18.90;3.28;;;16.50;99.90;;;;;;6043676;23;20481;-88
2021/07/08 00:53:04;;;;;;;6.35;3.60;;;16.40;99.90;;;;;;6067627;23;20034;-88
2021/07/08 00:55:32;;;;;;;4.25;3.85;;;16.30;99.90;;;;;;6098869;23;20037;-87
2021/07/08 00:58:00;;;;;;;6.47;2.38;;;16.30;99.90;;;;;;6067940;23;20018;-89
2021/07/08 01:00:33;;;;;;;4.63;2.92;;;16.30;99.90;;;;;;6095616;23;20033;-87
2021/07/08 01:03:07;;;;;;;5.45;4.28;;;16.30;99.90;;;;;;6101602;23;20014;-88
2021/07/08 01:05:39;;;;;;;6.95;5.47;;;16.30;99.90;;;;;;6078571;23;20018;-88
2021/07/08 01:08:09;;;;;;;5.32;3.33;;;16.30;99.90;;;;;;6097069;23;20033;-88
2021/07/08 01:10:37;;;;;;;5.15;4.65;;;16.30;99.90;;;;;;6076952;23;20018;-88
2021/07/08 01:13:05;;;;;;;6.53;3.65;;;16.30;99.90;;;;;;6044234;23;20022;-89
2021/07/08 01:15:34;;;;;;;10.43;4.53;;;16.30;99.90;;;;;;6044219;23;20026;-88
2021/07/08 01:18:02;;;;;;;4.43;3.83;;;16.20;99.90;;;;;;6078861;23;20023;-88
2021/07/08 01:20:32;;;;;;;4.97;4.57;;;16.20;99.90;;;;;;6094894;23;20023;-88
2021/07/08 01:23:01;;;;;;;8.63;4.57;;;16.20;99.90;;;;;;6063922;23;20018;-88
2021/07/08 01:25:36;;;;;;;8.05;4.63;;;16.10;99.90;;;;;;6072672;23;20442;-88
2021/07/08 01:28:06;;;;;;;4.40;3.70;;;16.10;99.90;;;;;;6126746;23;20025;-88
2021/07/08 01:30:35;;;;;;;5.13;4.72;;;16.10;99.90;;;;;;6106875;23;20037;-88
2021/07/08 01:33:05;;;;;;;5.85;5.25;;;16.10;99.90;;;;;;6096302;23;20468;-88
2021/07/08 01:35:33;;;;;;;10.82;5.47;;;16.00;99.90;;;;;;6128096;23;20479;-88
2021/07/08 01:38:01;;;;;;;5.57;4.32;;;16.00;99.90;;;;;;6133402;23;20010;-88
2021/07/08 01:40:28;;;;;;;6.00;5.50;;;16.00;99.90;;;;;;6096000;23;20022;-88
2021/07/08 01:42:56;;;;;;;4.93;4.38;;;16.00;99.90;;;;;;6105462;23;20055;-88
2021/07/08 01:45:25;;;;;;;5.28;4.63;;;15.90;99.90;;;;;;6133496;23;20014;-88
2021/07/08 01:47:53;;;;;;;5.30;4.10;;;15.90;99.90;;;;;;6127058;23;20030;-88
2021/07/08 01:50:27;;;;;;;4.68;4.28;;;16.00;99.90;;;;;;6132738;23;20021;-88
2021/07/08 01:52:55;;;;;;;5.47;4.97;;;16.00;99.90;;;;;;6122830;23;20030;-87
2021/07/08 01:55:23;;;;;;;6.45;5.95;;;16.00;99.90;;;;;;6129513;23;20022;-88
2021/07/08 01:57:56;;;;;;;5.93;5.30;;;16.00;99.90;;;;;;6098915;23;20014;-88
2021/07/08 02:00:25;;;;;;;6.63;6.00;;;15.90;99.90;;;;;;6100735;23;20022;-88
2021/07/08 02:02:54;;;;;;;5.80;5.25;;;15.90;99.90;;;;;;6083491;23;20029;-87
2021/07/08 02:05:22;;;;;;;11.13;8.82;;;15.90;99.90;;;;;;6050879;23;20033;-88
2021/07/08 02:07:51;;;;;;;10.07;6.38;;;16.00;99.90;;;;;;6074746;23;20033;-88
2021/07/08 02:10:19;;;;;;;6.47;5.68;;;15.90;99.90;;;;;;6098819;23;20018;-87
2021/07/08 02:12:47;;;;;;;7.38;6.63;;;15.90;99.90;;;;;;6099708;23;20037;-89
2021/07/08 02:15:16;;;;;;;7.53;6.75;;;15.90;99.90;;;;;;6105345;23;20026;-88
2021/07/08 02:17:44;;;;;;;6.03;5.43;;;16.00;99.90;;;;;;6108887;23;20022;-89
2021/07/08 02:20:13;;;;;;;9.95;7.55;;;16.00;99.90;;;;;;6073514;23;20357;-88
2021/07/08 02:22:42;;;;;;;7.18;6.45;;;16.00;99.90;;;;;;6128091;23;20338;-87
2021/07/08 02:25:11;;;;;;;7.82;7.03;;;16.00;99.90;;;;;;6108329;23;20010;-88
2021/07/08 02:27:40;;;;;;;11.23;7.68;;;15.90;99.90;;;;;;6129628;23;20030;-86
2021/07/08 02:30:10;;;;;;;8.98;7.25;;;15.90;99.90;;;;;;6134685;23;20022;-87
2021/07/08 02:32:39;;;;;;;8.52;7.43;;;15.90;99.90;;;;;;6097494;23;20022;-88
2021/07/08 02:35:08;;;;;;;7.50;6.68;;;15.90;99.90;;;;;;6106161;23;20030;-87
2021/07/08 02:37:38;;;;;;;7.93;7.20;;;15.80;99.90;;;;;;6109003;23;20029;-88
2021/07/08 02:40:11;;;;;;;7.45;6.15;;;15.80;99.90;;;;;;6096428;23;20026;-88
2021/07/08 02:42:40;;;;;;;7.63;6.10;;;15.80;99.90;;;;;;6107711;23;20315;-87
2021/07/08 02:45:09;;;;;;;8.18;6.55;;;15.90;99.90;;;;;;6134860;23;20010;-86
2021/07/08 02:47:36;;;;;;;9.13;7.35;;;15.90;99.90;;;;;;6129557;23;20018;-87
2021/07/08 02:50:05;;;;;;;11.68;8.35;;;15.90;99.90;;;;;;6074129;23;20029;-86
2021/07/08 02:52:33;;;;;;;8.60;7.03;;;15.90;99.90;;;;;;6073372;23;20041;-87
2021/07/08 02:55:01;;;;;;;9.80;8.00;;;15.90;99.90;;;;;;6131710;23;20029;-85
2021/07/08 02:57:28;;;;;;;8.35;7.20;;;15.90;99.90;;;;;;6134790;23;20374;-86
2021/07/08 02:59:56;;;;;;;8.02;7.22;;;15.90;99.90;;;;;;6128007;23;20808;-86
2021/07/08 03:02:24;;;;;;;8.25;7.45;;;16.00;99.90;;;;;;6108464;23;20025;-87
2021/07/08 03:04:52;;;;;;;8.40;7.22;;;15.90;99.90;;;;;;6123964;23;20037;-84
2021/07/08 03:07:20;;;;;;;7.28;6.57;;;15.90;99.90;;;;;;6130040;23;20785;-86
2021/07/08 03:09:47;;;;;;;8.35;7.00;;;15.90;99.90;;;;;;6133482;23;20311;-86
2021/07/08 03:12:15;;;;;;;9.93;7.20;;;15.90;99.90;;;;;;6077125;23;20018;-85
2021/07/08 03:14:43;;;;;;;9.20;8.30;;;15.90;99.90;;;;;;6107483;23;20446;-86
2021/07/08 03:17:11;;;;;;;8.40;7.35;;;16.00;99.90;;;;;;6097431;23;20025;-85
2021/07/08 03:19:39;;;;;;;8.23;7.13;;;15.90;99.90;;;;;;6128644;23;20449;-86
2021/07/08 03:22:07;;;;;;;9.27;7.72;;;15.90;99.90;;;;;;6105014;23;20026;-86
2021/07/08 03:24:35;;;;;;;8.43;7.63;;;16.00;99.90;;;;;;6071750;23;20481;-85
2021/07/08 03:27:03;;;;;;;7.90;7.10;;;15.90;99.90;;;;;;6097023;23;20014;-86
2021/07/08 03:29:31;;;;;;;8.38;7.45;;;16.00;99.90;;;;;;6108738;23;20572;-85
2021/07/08 03:32:01;;;;;;;10.20;7.60;;;16.00;99.90;;;;;;6127204;23;20029;-85
2021/07/08 03:34:29;;;;;;;9.15;8.25;;;16.00;99.90;;;;;;6133428;23;20323;-85
2021/07/08 03:36:57;;;;;;;9.85;7.60;;;16.00;99.90;;;;;;6123978;23;20033;-85
2021/07/08 03:39:25;;;;;;;8.57;7.50;;;16.00;99.90;;;;;;6129481;23;20026;-86
2021/07/08 03:41:53;;;;;;;12.38;7.05;;;16.00;99.90;;;;;;6084437;23;20010;-85
2021/07/08 03:44:20;;;;;;;12.73;7.68;;;16.00;99.90;;;;;;6100602;23;20018;-85
2021/07/08 03:46:48;;;;;;;10.52;7.72;;;16.10;99.90;;;;;;6132251;23;20014;-85
2021/07/08 03:49:16;;;;;;;12.55;7.63;;;16.00;99.90;;;;;;6107837;23;20010;-85
2021/07/08 03:51:44;;;;;;;11.13;8.57;;;16.00;99.90;;;;;;6102861;23;20025;-86
2021/07/08 03:54:11;;;;;;;9.50;7.75;;;16.00;99.90;;;;;;6107573;23;20018;-85
2021/07/08 03:56:39;;;;;;;8.85;7.88;;;16.00;99.90;;;;;;6073096;23;20030;-87
2021/07/08 03:59:08;;;;;;;14.80;7.20;;;16.00;99.90;;;;;;6131123;23;20060;-85
2021/07/08 04:01:35;;;;;;;10.68;7.85;;;16.00;99.90;;;;;;6107683;23;20018;-85
2021/07/08 04:04:03;;;;;;;8.25;7.40;;;16.00;99.90;;;;;;6100774;23;20022;-85
2021/07/08 04:06:31;;;;;;;10.43;7.80;;;16.00;99.90;;;;;;6108190;23;20334;-85
2021/07/08 04:08:59;;;;;;;10.90;7.03;;;16.00;99.90;;;;;;6122298;23;20030;-85
2021/07/08 04:11:27;;;;;;;9.25;7.97;;;16.00;99.90;;;;;;6128995;23;20025;-86
2021/07/08 04:13:55;;;;;;;11.80;7.95;;;16.00;99.90;;;;;;6107494;23;20028;-85
2021/07/08 04:16:22;;;;;;;12.18;7.18;;;16.00;99.90;;;;;;6072659;23;20026;-85
2021/07/08 04:18:50;;;;;;;10.50;7.78;;;16.00;99.90;;;;;;6106149;23;20021;-85
2021/07/08 04:21:18;;;;;;;11.02;8.23;;;16.00;99.90;;;;;;6097630;23;20018;-86
2021/07/08 04:23:46;;;;;;;10.32;7.18;;;16.00;99.90;;;;;;6072086;23;20037;-85
2021/07/08 04:26:15;;;;;;;9.20;7.78;;;16.00;99.90;;;;;;6107280;23;20018;-85
2021/07/08 04:28:42;;;;;;;9.15;7.30;;;16.00;99.90;;;;;;6098540;23;20036;-85
2021/07/08 04:31:14;;;;;;;9.60;7.40;;;16.10;99.90;;;;;;6096168;23;20026;-85
2021/07/08 04:33:44;;;;;;;16.58;9.38;;;16.00;99.90;;;;;;6073347;23;20013;-84
2021/07/08 04:36:13;;;;;;;13.48;8.68;;;16.10;99.90;;;;;;6100212;23;20022;-85
2021/07/08 04:38:43;;;;;;;14.13;8.25;;;16.00;99.90;;;;;;6131724;23;20014;-85
2021/07/08 04:41:10;;;;;;;9.55;7.40;;;16.00;99.90;;;;;;6132692;23;20543;-83
2021/07/08 04:43:38;;;;;;;10.38;8.43;;;16.00;99.90;;;;;;6048424;23;20021;-86
2021/07/08 04:46:06;;;;;;;11.00;8.25;;;16.00;99.90;;;;;;6096579;23;20370;-88
2021/07/08 04:48:35;;;;;;;10.77;8.43;;;16.00;99.90;;;;;;6072415;23;20787;-85
2021/07/08 04:51:04;;;;;;;10.10;7.93;;;16.00;99.90;;;;;;6105099;23;20021;-86
2021/07/08 04:53:31;;;;;;;9.85;8.75;;;16.00;99.90;;;;;;6072111;23;20021;-84
2021/07/08 04:55:59;;;;;;;9.73;7.85;;;16.00;99.90;;;;;;6126216;23;20029;-86
2021/07/08 04:58:28;;;;;;;8.75;7.90;;;16.10;99.90;;;;;;6073592;23;20018;-84
2021/07/08 05:00:56;;;;;;;12.30;7.70;;;16.00;99.90;;;;;;6097311;23;20026;-85
2021/07/08 05:03:24;;;;;;;9.38;7.55;;;16.10;99.90;;;;;;6103089;23;20029;-86
2021/07/08 05:05:52;;;;;;;10.35;7.43;;;16.10;99.90;;;;;;6096564;23;20338;-87
2021/07/08 05:08:20;;;;;;;10.40;9.15;;;16.10;99.90;;;;;;6096506;23;20021;-86
2021/07/08 05:10:48;;;;;;;16.23;9.73;;;16.10;99.90;;;;;;6071806;23;20040;-86
2021/07/08 05:13:16;;;;;;;12.70;9.00;;;16.20;99.90;;;;;;6097603;23;20026;-87
2021/07/08 05:15:43;;;;;;;11.55;7.47;;;16.20;99.90;;;;;;6102657;23;20018;-87
2021/07/08 05:18:11;;;;;;;12.75;9.70;;;16.20;99.90;;;;;;6107352;23;20460;-85
2021/07/08 05:20:40;;;;;;;11.85;8.82;;;16.20;99.90;;;;;;6047888;23;20033;-84
2021/07/08 05:23:21;;;;;;;10.57;8.73;;;16.20;99.90;;;;;;6098917;23;20465;-86
2021/07/08 05:25:50;;;;;;;10.70;8.85;;;16.20;99.90;;;;;;6107128;23;20025;-83
2021/07/08 05:28:56;;;;;;;11.77;7.80;;;16.20;99.90;;;;;;6125564;23;20029;-87
2021/07/08 05:31:50;;;;;;;9.68;8.00;;;16.20;99.90;;;;;;6072754;23;20074;-84
2021/07/08 05:34:18;;;;;;;13.07;7.97;;;16.20;99.90;;;;;;6098581;23;20018;-85
2021/07/08 05:36:46;;;;;;;9.68;8.65;;;16.10;99.90;;;;;;6099956;23;20030;-84
2021/07/08 05:39:14;;;;;;;11.15;8.38;;;16.20;99.90;;;;;;6130757;23;20022;-83
2021/07/08 05:41:41;;;;;;;13.13;8.75;;;16.20;99.90;;;;;;6134748;23;20338;-85
2021/07/08 05:44:09;;;;;;;14.38;7.85;;;16.10;99.90;;;;;;6073562;23;20034;-85
2021/07/08 05:46:40;;;;;;;10.27;9.02;;;16.20;99.90;;;;;;6134201;23;20022;-84
2021/07/08 05:49:08;;;;;;;12.40;8.43;;;16.20;99.90;;;;;;6074861;23;20024;-84
2021/07/08 05:51:36;;;;;;;12.30;9.77;;;16.20;99.90;;;;;;6125074;23;20322;-85
2021/07/08 05:54:03;;;;;;;15.13;8.43;;;16.20;99.90;;;;;;6074535;23;20017;-83
2021/07/08 05:56:32;;;;;;;12.70;8.68;;;16.20;99.90;;;;;;6126410;23;20029;-85
2021/07/08 05:59:00;;;;;;;8.85;7.93;;;16.20;99.90;;;;;;6132653;23;20025;-84
2021/07/08 06:01:27;;;;;;;10.20;8.50;;;16.30;99.90;;;;;;6135196;23;20014;-83
2021/07/08 06:03:55;;;;;;;11.70;8.27;;;16.30;99.90;;;;;;6128219;23;20032;-83
2021/07/08 06:06:23;;;;;;;13.38;9.60;;;16.30;99.90;;;;;;6074070;23;20018;-82
2021/07/08 06:08:50;;;;;;;13.02;8.85;;;16.30;99.90;;;;;;6124723;23;20029;-82
2021/07/08 06:11:18;;;;;;;10.93;9.10;;;16.30;99.90;;;;;;6073683;23;20026;-83
2021/07/08 06:13:46;;;;;;;13.95;11.02;;;16.30;99.90;;;;;;6074384;23;20018;-82
2021/07/08 06:16:14;;;;;;;15.82;8.90;;;16.30;99.90;;;;;;6097442;23;20026;-83
2021/07/08 06:18:45;;;;;;;16.38;9.63;;;16.30;99.90;;;;;;6103591;23;20014;-84
2021/07/08 06:21:18;;;;;;;13.95;11.10;;;16.30;99.90;;;;;;6096219;23;20014;-83
2021/07/08 06:23:46;;;;;;;22.83;10.50;;;16.30;99.90;;;;;;6068797;23;20053;-84
2021/07/08 06:26:14;;;;;;;13.48;10.02;;;16.30;99.90;;;;;;6068733;23;20019;-84
2021/07/08 06:28:43;;;;;;;20.38;11.07;;;16.30;99.90;;;;;;6094806;23;20026;-80
2021/07/08 06:31:10;;;;;;;29.30;10.85;;;16.30;99.90;;;;;;6045268;23;20018;-80
2021/07/08 06:33:44;;;;;;;17.52;9.65;;;16.30;99.90;;;;;;6045632;23;20031;-79
2021/07/08 06:36:18;;;;;;;13.30;9.18;;;16.30;99.90;;;;;;6071858;23;20115;-78
2021/07/08 06:38:45;;;;;;;15.50;9.02;;;16.40;99.90;;;;;;6102885;23;20029;-81
2021/07/08 06:41:13;;;;;;;23.88;10.35;;;16.50;99.90;;;;;;6103953;23;20018;-81
2021/07/08 06:43:46;;;;;;;15.90;10.55;;;16.50;99.90;;;;;;6067961;23;20022;-80
2021/07/08 06:46:18;;;;;;;17.83;11.32;;;16.50;99.90;;;;;;6046041;23;20019;-79
2021/07/08 06:48:46;;;;;;;23.60;11.18;;;16.40;99.90;;;;;;6070769;23;20026;-79
2021/07/08 06:51:18;;;;;;;13.52;9.90;;;16.50;99.90;;;;;;6100951;23;20742;-83
2021/07/08 06:53:46;;;;;;;11.90;10.48;;;16.50;99.90;;;;;;6104887;23;20018;-82
2021/07/08 06:56:13;;;;;;;18.42;12.18;;;16.60;99.90;;;;;;6097397;23;20454;-82
2021/07/08 06:58:42;;;;;;;12.52;9.23;;;16.60;99.90;;;;;;6078540;23;20028;-82
2021/07/08 07:01:11;;;;;;;19.73;10.95;;;16.60;99.90;;;;;;6105226;23;20011;-83
2021/07/08 07:03:40;;;;;;;13.13;8.52;;;16.60;99.90;;;;;;6068499;23;20027;-83
2021/07/08 07:06:08;;;;;;;13.73;8.70;;;16.70;99.90;;;;;;6079646;23;20589;-83
2021/07/08 07:08:42;;;;;;;14.27;8.25;;;16.90;99.90;;;;;;6069614;23;20022;-83
2021/07/08 07:11:11;;;;;;;10.60;9.15;;;17.00;99.90;;;;;;6101090;23;20025;-83
2021/07/08 07:13:39;;;;;;;13.85;10.02;;;17.10;99.90;;;;;;6104247;23;20014;-82
2021/07/08 07:16:07;;;;;;;15.02;9.85;;;17.10;99.90;;;;;;6072125;23;20031;-83
2021/07/08 07:18:40;;;;;;;12.68;9.15;;;17.20;99.90;;;;;;6103812;23;20335;-82
2021/07/08 07:21:11;;;;;;;10.70;9.60;;;17.20;99.90;;;;;;6104098;23;20015;-82
2021/07/08 07:23:42;;;;;;;11.73;7.97;;;17.40;99.90;;;;;;6122277;23;20441;-82
2021/07/08 07:26:12;;;;;;;10.52;8.43;;;17.50;99.90;;;;;;6133798;23;20353;-83
2021/07/08 07:28:40;;;;;;;14.68;9.45;;;17.50;99.90;;;;;;6099033;23;20029;-82
2021/07/08 07:31:09;;;;;;;14.10;10.48;;;17.50;99.90;;;;;;6096314;23;20025;-83
2021/07/08 07:33:37;;;;;;;16.13;9.35;;;17.50;99.90;;;;;;6097285;23;20022;-83
2021/07/08 07:36:05;;;;;;;12.27;10.07;;;17.40;99.90;;;;;;6100857;23;20032;-82
2021/07/08 07:38:32;;;;;;;16.83;10.23;;;17.50;99.90;;;;;;6132368;23;20021;-82
2021/07/08 07:41:01;;;;;;;18.35;9.55;;;17.40;99.90;;;;;;6133734;23;20028;-82
2021/07/08 07:43:29;;;;;;;18.55;13.80;;;17.40;99.90;;;;;;6129347;23;20033;-82
2021/07/08 07:45:56;;;;;;;20.73;10.02;;;17.40;99.90;;;;;;6133979;23;20014;-82
2021/07/08 07:48:24;;;;;;;21.83;11.65;;;17.40;99.90;;;;;;6125256;23;20026;-82
2021/07/08 07:50:52;;;;;;;21.95;9.18;;;17.50;99.90;;;;;;6131498;23;20017;-82
2021/07/08 07:53:20;;;;;;;17.10;11.48;;;17.60;99.90;;;;;;6133143;23;20033;-82
2021/07/08 07:55:49;;;;;;;11.00;8.30;;;17.60;99.90;;;;;;6127865;23;20026;-82
2021/07/08 07:58:18;;;;;;;17.58;8.77;;;17.70;99.90;;;;;;6133729;23;20014;-82
2021/07/08 08:00:47;;;;;;;16.50;9.93;;;17.80;99.90;;;;;;6095952;23;20026;-82
2021/07/08 08:03:16;;;;;;;9.38;7.78;;;17.90;99.90;;;;;;6129787;23;20030;-82
2021/07/08 08:08:27;;;;;;;7.03;6.32;;;17.90;99.90;;;;;;6133625;23;20018;-82
2021/07/08 08:08:42;;;;;;;30.35;10.13;;;17.90;99.90;;;;;;6123707;23;20022;-81
2021/07/08 08:11:10;;;;;;;12.75;8.85;;;18.00;99.90;;;;;;6129088;23;20022;-81
2021/07/08 08:13:40;;;;;;;10.18;8.60;;;18.10;99.90;;;;;;6097224;23;20457;-82
2021/07/08 08:16:08;;;;;;;11.00;8.15;;;18.20;99.90;;;;;;6126574;23;20029;-82
2021/07/08 08:18:36;;;;;;;8.55;7.22;;;18.20;99.90;;;;;;6132188;23;20041;-82
2021/07/08 08:21:16;;;;;;;15.75;8.77;;;18.30;99.90;;;;;;6133291;23;20026;-82
2021/07/08 08:23:45;;;;;;;9.75;8.73;;;18.40;99.90;;;;;;6126878;23;20029;-81
2021/07/08 08:26:13;;;;;;;17.40;9.88;;;18.10;99.90;;;;;;6133350;23;20017;-83
2021/07/08 08:28:42;;;;;;;15.85;9.93;;;17.90;99.90;;;;;;6098504;23;20026;-82
2021/07/08 08:31:10;;;;;;;12.50;9.13;;;17.80;99.90;;;;;;6130226;23;20014;-82
2021/07/08 08:33:38;;;;;;;12.50;9.38;;;17.70;99.90;;;;;;6106584;23;20018;-82
2021/07/08 08:36:06;;;;;;;12.23;10.27;;;17.60;99.90;;;;;;6100966;23;20034;-82
2021/07/08 08:38:34;;;;;;;16.58;12.15;;;17.50;99.90;;;;;;6132434;23;20021;-81
2021/07/08 08:41:02;;;;;;;16.83;10.30;;;17.40;99.90;;;;;;6106359;23;20014;-83
2021/07/08 08:43:31;;;;;;;18.65;10.95;;;17.30;99.90;;;;;;6128714;23;20025;-82
2021/07/08 08:46:01;;;;;;;21.08;11.90;;;17.20;99.90;;;;;;6133303;23;20453;-81
2021/07/08 08:48:29;;;;;;;14.82;10.35;;;17.30;99.90;;;;;;6124773;23;20025;-83
2021/07/08 08:50:57;;;;;;;18.60;13.18;;;17.30;99.90;;;;;;6104662;23;20021;-81
2021/07/08 08:53:25;;;;;;;21.95;13.80;;;17.30;99.90;;;;;;6132925;23;20013;-82
2021/07/08 08:55:53;;;;;;;21.42;13.63;;;17.30;99.90;;;;;;6126830;23;20040;-81
2021/07/08 08:58:22;;;;;;;21.38;13.35;;;17.30;99.90;;;;;;6132909;23;20014;-82
2021/07/08 09:00:56;;;;;;;21.48;12.00;;;17.20;99.90;;;;;;6122132;23;20029;-85
2021/07/08 09:03:28;;;;;;;14.32;10.90;;;17.20;99.90;;;;;;6128659;23;20021;-81
2021/07/08 09:06:00;;;;;;;15.63;10.82;;;17.10;99.90;;;;;;6106549;23;20018;-80
2021/07/08 09:08:29;;;;;;;15.07;11.00;;;17.10;99.90;;;;;;6123959;23;20045;-84
2021/07/08 09:11:18;;;;;;;16.20;14.30;;;17.10;99.90;;;;;;6072093;23;20029;-80
2021/07/08 09:14:02;;;;;;;20.60;12.20;;;17.00;99.90;;;;;;6107802;23;20021;-79
2021/07/08 09:16:32;;;;;;;16.65;11.60;;;17.10;99.90;;;;;;6074193;23;20022;-80
2021/07/08 09:19:10;;;;;;;18.25;12.52;;;17.10;99.90;;;;;;6130395;23;20346;-80
2021/07/08 09:21:51;;;;;;;22.30;15.02;;;17.10;99.90;;;;;;6131729;23;20393;-80
2021/07/08 09:24:26;;;;;;;23.02;14.25;;;17.10;99.90;;;;;;6098155;23;20030;-80
2021/07/08 09:27:10;;;;;;;26.60;13.88;;;17.00;99.90;;;;;;6131248;23;20469;-80
2021/07/08 09:29:49;;;;;;;20.98;13.00;;;17.10;99.90;;;;;;6132763;23;20010;-80
2021/07/08 09:32:22;;;;;;;22.48;14.82;;;17.10;99.90;;;;;;6096877;23;20033;-80
2021/07/08 09:34:51;;;;;;;40.40;17.08;;;17.10;99.90;;;;;;6104432;23;20022;-80
2021/07/08 09:37:20;;;;;;;29.42;17.55;;;17.10;99.90;;;;;;6133258;23;20025;-80
2021/07/08 09:39:55;;;;;;;24.27;16.40;;;17.10;99.90;;;;;;6126072;23;20026;-81
2021/07/08 09:42:38;;;;;;;29.25;16.85;;;17.10;99.90;;;;;;6123055;23;20018;-81
2021/07/08 09:45:08;;;;;;;27.08;17.02;;;17.10;99.90;;;;;;6104741;23;20032;-80
2021/07/08 09:47:43;;;;;;;32.03;17.38;;;17.10;99.90;;;;;;6095147;23;20018;-79
2021/07/08 09:50:22;;;;;;;26.67;16.25;;;17.10;99.90;;;;;;6132578;23;20018;-80
2021/07/08 09:58:56;;;;;;;31.33;17.67;;;17.10;99.90;;;;;;6132417;23;20021;-80
2021/07/08 10:01:26;;;;;;;25.67;16.80;;;17.10;99.90;;;;;;6096161;23;20029;-80
2021/07/08 10:03:56;;;;;;;29.77;16.85;;;17.10;99.90;;;;;;6123515;23;20489;-86
2021/07/08 10:06:27;;;;;;;24.83;17.42;;;17.20;99.90;;;;;;6095858;23;20022;-89
2021/07/08 10:08:57;;;;;;;23.88;14.55;;;17.30;99.90;;;;;;6096096;23;20029;-87
2021/07/08 10:11:27;;;;;;;32.33;18.67;;;17.30;99.90;;;;;;6102014;23;20030;-88
2021/07/08 10:13:57;;;;;;;26.02;14.63;;;17.30;99.90;;;;;;6096340;23;20022;-86
2021/07/08 10:16:27;;;;;;;28.73;16.77;;;17.40;99.90;;;;;;6099163;23;20353;-78
2021/07/08 10:18:58;;;;;;;29.63;19.08;;;17.40;99.90;;;;;;6132817;23;20249;-79
2021/07/08 10:21:29;;;;;;;25.50;18.50;;;17.50;99.90;;;;;;6134141;23;20010;-79
2021/07/08 10:23:58;;;;;;;;;;;17.50;99.90;;;;;;6099224;23;20025;-80
2021/07/08 10:26:26;;;;;;;30.30;17.02;;;17.40;99.90;;;;;;6134473;23;19937;-80
2021/07/08 10:28:57;;;;;;;33.83;15.40;;;17.40;99.90;;;;;;6123601;23;20022;-80
2021/07/08 10:31:36;;;;;;;24.20;16.48;;;17.30;99.90;;;;;;6128837;23;20018;-78
2021/07/08 10:34:07;;;;;;;23.48;13.82;;;17.30;99.90;;;;;;6134240;23;20014;-79
2021/07/08 10:36:37;;;;;;;30.15;16.65;;;17.40;99.90;;;;;;6125916;23;20029;-78
2021/07/08 10:39:14;;;;;;;26.17;13.98;;;17.40;99.90;;;;;;6105763;23;20349;-78
2021/07/08 10:41:44;;;;;;;28.20;16.58;;;17.40;99.90;;;;;;6134594;23;20325;-77
2021/07/08 10:44:34;;;;;;;38.53;18.48;;;17.40;99.90;;;;;;6127397;23;20025;-77
2021/07/08 10:47:02;;;;;;;29.92;16.63;;;17.40;99.90;;;;;;6132161;23;20022;-77
2021/07/08 10:49:39;;;;;;;29.90;17.63;;;17.40;99.90;;;;;;6108122;23;20021;-78
2021/07/08 10:52:11;;;;;;;26.88;16.35;;;17.30;99.90;;;;;;6127696;23;20053;-78
2021/07/08 10:54:48;;;;;;;31.73;18.30;;;17.30;99.90;;;;;;6132627;23;20014;-79
2021/07/08 10:57:37;;;;;;;29.15;18.45;;;17.40;99.90;;;;;;6134595;23;20434;-78
2021/07/08 11:00:45;;;;;;;24.27;15.82;;;17.50;99.90;;;;;;6126821;23;20326;-79
2021/07/08 11:03:31;;;;;;;22.35;13.98;;;17.40;99.90;;;;;;6105371;23;20041;-79
2021/07/08 11:06:09;;;;;;;21.52;14.88;;;17.30;99.90;;;;;;6134400;23;20014;-78
2021/07/08 11:08:49;;;;;;;15.75;10.55;;;17.30;99.90;;;;;;6124935;23;20022;-78
2021/07/08 11:11:23;;;;;;;23.60;12.23;;;17.40;99.90;;;;;;6096665;23;20380;-78
2021/07/08 11:13:52;;;;;;;20.25;13.55;;;17.40;99.90;;;;;;6134129;23;20326;-79
2021/07/08 11:16:40;;;;;;;24.92;12.60;;;17.40;99.90;;;;;;6125812;23;20025;-79
2021/07/08 11:19:09;;;;;;;20.33;13.43;;;17.50;99.90;;;;;;6131254;23;20018;-81
2021/07/08 11:22:06;;;;;;;26.25;14.15;;;17.50;99.90;;;;;;6133742;23;20021;-79
2021/07/08 11:24:53;;;;;;;16.25;10.98;;;17.70;99.90;;;;;;6124399;23;20358;-83
2021/07/08 11:27:23;;;;;;;18.05;10.43;;;17.70;99.90;;;;;;6130110;23;20029;-81
2021/07/08 11:29:54;;;;;;;18.15;10.02;;;17.70;99.90;;;;;;6108362;23;20017;-80
2021/07/08 11:32:29;;;;;;;16.02;11.95;;;17.70;99.90;;;;;;6100585;23;20025;-80
2021/07/08 11:35:06;;;;;;;13.57;10.50;;;17.70;99.90;;;;;;6130860;23;20032;-78
2021/07/08 11:37:39;;;;;;;15.00;9.63;;;17.90;99.90;;;;;;6133524;23;20647;-80
2021/07/08 11:40:12;;;;;;;7.45;5.32;;;18.10;99.90;;;;;;6096907;23;20421;-79
2021/07/08 11:42:43;;;;;;;9.23;7.13;;;18.30;99.90;;;;;;6132888;23;20041;-80
2021/07/08 11:45:26;;;;;;;8.67;5.60;;;18.30;99.90;;;;;;6133905;23;20014;-79
2021/07/08 11:47:59;;;;;;;7.32;5.25;;;18.40;99.90;;;;;;6123305;23;20025;-80
2021/07/08 11:50:34;;;;;;;7.55;5.38;;;18.60;99.90;;;;;;6134181;23;20346;-80
2021/07/08 11:53:16;;;;;;;8.02;6.70;;;18.70;99.90;;;;;;6123208;23;20034;-79
2021/07/08 11:55:50;;;;;;;18.65;6.75;;;18.90;99.90;;;;;;6102731;23;20044;-80
2021/07/08 11:58:27;;;;;;;8.98;5.75;;;18.90;99.90;;;;;;6134030;23;20009;-79
2021/07/08 12:00:57;;;;;;;9.48;7.15;;;19.00;99.90;;;;;;6123533;23;20029;-77
2021/07/08 12:03:40;;;;;;;11.30;8.07;;;19.10;99.90;;;;;;6128946;23;20362;-77
2021/07/08 12:06:13;;;;;;;16.10;10.98;;;19.00;99.90;;;;;;6134275;23;20014;-78
2021/07/08 12:08:58;;;;;;;21.60;11.10;;;18.70;99.90;;;;;;6096946;23;20029;-78
2021/07/08 12:11:31;;;;;;;14.38;9.48;;;18.50;99.90;;;;;;6128908;23;20018;-77
2021/07/08 12:14:05;;;;;;;18.75;11.13;;;18.40;99.90;;;;;;6132872;23;20014;-77
2021/07/08 12:16:42;;;;;;;18.73;13.40;;;18.40;99.90;;;;;;6124250;23;20029;-77
2021/07/08 12:19:22;;;;;;;23.90;14.68;;;18.30;99.90;;;;;;6129082;23;20022;-77
2021/07/08 12:21:52;;;;;;;20.92;13.77;;;18.30;99.90;;;;;;6131779;23;20017;-77
2021/07/08 12:24:22;;;;;;;23.77;15.55;;;18.30;99.90;;;;;;6124458;23;20672;-77
2021/07/08 12:26:53;;;;;;;23.00;15.73;;;18.40;99.90;;;;;;6130966;23;20789;-77
2021/07/08 12:29:25;;;;;;;36.65;16.73;;;18.30;99.90;;;;;;6131879;23;20010;-77
2021/07/08 12:31:52;;;;;;;;;;;18.20;99.90;;;;;;6126848;23;20350;-77
2021/07/08 12:34:44;;;;;;;25.83;16.60;;;18.20;99.90;;;;;;6132401;23;19920;-77
2021/07/08 12:37:22;;;;;;;26.50;18.83;;;18.10;99.90;;;;;;6041408;23;20030;-76
2021/07/08 12:40:12;;;;;;;29.13;19.23;;;18.00;99.90;;;;;;6124530;23;20041;-77
2021/07/08 12:42:45;;;;;;;31.95;20.48;;;18.00;99.90;;;;;;6131537;23;20048;-78
2021/07/08 12:45:18;;;;;;;30.48;20.80;;;17.90;99.90;;;;;;6131125;23;20020;-82
2021/07/08 12:47:51;;;;;;;27.58;18.65;;;17.90;99.90;;;;;;6125173;23;20030;-83
2021/07/08 12:50:28;;;;;;;33.47;21.50;;;17.90;99.90;;;;;;6130405;23;20357;-77
2021/07/08 12:52:58;;;;;;;34.30;22.45;;;17.80;99.90;;;;;;6122093;23;20041;-78
2021/07/08 12:55:44;;;;;;;34.17;21.30;;;17.80;99.90;;;;;;6127704;23;20022;-78
2021/07/08 12:58:17;;;;;;;34.58;22.08;;;17.80;99.90;;;;;;6133503;23;20449;-77
2021/07/08 13:00:45;;;;;;;35.72;24.45;;;17.80;99.90;;;;;;6072448;23;20029;-78
2021/07/08 13:03:25;;;;;;;36.58;22.92;;;17.80;99.90;;;;;;6129909;23;20456;-78